sensor_id;sensor_type;location;lat;lon;timestamp;pressure;altitude;pressure_sealevel;temperature;humidity
37610;BME280;23457;51.966;8.230;2023-02-14T00:00:48;102895.94;;;2.76;100.00
37610;BME280;23457;51.966;8.230;2023-02-14T00:03:15;102886.56;;;2.76;100.00
37610;BME280;23457;51.966;8.230;2023-02-14T00:05:41;102886.53;;;2.86;100.00
37610;BME280;23457;51.966;8.230;2023-02-14T00:08:08;102894.88;;;2.84;100.00
37610;BME280;23457;51.966;8.230;2023-02-14T00:10:35;102884.59;;;2.84;100.00
37610;BME280;23457;51.966;8.230;2023-02-14T00:13:04;102890.13;;;2.88;100.00
37610;BME280;23457;51.966;8.230;2023-02-14T00:15:31;102887.69;;;2.90;100.00
37610;BME280;23457;51.966;8.230;2023-02-14T00:17:57;102879.72;;;2.87;100.00
37610;BME280;23457;51.966;8.230;2023-02-14T00:20:28;102890.25;;;2.80;100.00
37610;BME280;23457;51.966;8.230;2023-02-14T00:22:55;102888.06;;;2.84;100.00
37610;BME280;23457;51.966;8.230;2023-02-14T00:25:21;102890.38;;;2.81;100.00
37610;BME280;23457;51.966;8.230;2023-02-14T00:27:48;102900.81;;;2.73;100.00
37610;BME280;23457;51.966;8.230;2023-02-14T00:30:15;102893.47;;;2.67;100.00
37610;BME280;23457;51.966;8.230;2023-02-14T00:32:42;102894.66;;;2.71;100.00
37610;BME280;23457;51.966;8.230;2023-02-14T00:35:09;102893.63;;;2.69;100.00
37610;BME280;23457;51.966;8.230;2023-02-14T00:37:39;102899.00;;;2.72;100.00
37610;BME280;23457;51.966;8.230;2023-02-14T00:40:06;102898.47;;;2.86;100.00
37610;BME280;23457;51.966;8.230;2023-02-14T00:42:33;102896.31;;;2.70;100.00
37610;BME280;23457;51.966;8.230;2023-02-14T00:45:00;102897.50;;;2.64;100.00
37610;BME280;23457;51.966;8.230;2023-02-14T00:47:26;102899.81;;;2.61;100.00
37610;BME280;23457;51.966;8.230;2023-02-14T00:49:53;102902.38;;;2.61;100.00
37610;BME280;23457;51.966;8.230;2023-02-14T00:52:20;102900.84;;;2.63;100.00
37610;BME280;23457;51.966;8.230;2023-02-14T00:54:46;102896.06;;;2.57;100.00
37610;BME280;23457;51.966;8.230;2023-02-14T00:57:13;102906.72;;;2.62;100.00
37610;BME280;23457;51.966;8.230;2023-02-14T00:59:58;102907.50;;;2.61;100.00
37610;BME280;23457;51.966;8.230;2023-02-14T01:02:25;102906.22;;;2.56;100.00
37610;BME280;23457;51.966;8.230;2023-02-14T01:04:52;102906.47;;;2.59;100.00
37610;BME280;23457;51.966;8.230;2023-02-14T01:07:19;102909.31;;;2.51;100.00
37610;BME280;23457;51.966;8.230;2023-02-14T01:09:48;102905.19;;;2.53;100.00
37610;BME280;23457;51.966;8.230;2023-02-14T01:12:14;102909.31;;;2.51;100.00
37610;BME280;23457;51.966;8.230;2023-02-14T01:14:59;102907.00;;;2.65;100.00
37610;BME280;23457;51.966;8.230;2023-02-14T01:17:35;102913.66;;;2.63;100.00
37610;BME280;23457;51.966;8.230;2023-02-14T01:20:02;102900.44;;;2.58;100.00
37610;BME280;23457;51.966;8.230;2023-02-14T01:30:49;102904.94;;;2.50;100.00
37610;BME280;23457;51.966;8.230;2023-02-14T01:33:17;102900.94;;;2.54;100.00
37610;BME280;23457;51.966;8.230;2023-02-14T01:35:44;102907.25;;;2.47;100.00
37610;BME280;23457;51.966;8.230;2023-02-14T01:38:10;102904.16;;;2.41;100.00
37610;BME280;23457;51.966;8.230;2023-02-14T01:40:42;102904.69;;;2.37;100.00
37610;BME280;23457;51.966;8.230;2023-02-14T01:43:16;102903.16;;;2.39;100.00
37610;BME280;23457;51.966;8.230;2023-02-14T01:45:43;102907.53;;;2.40;100.00
37610;BME280;23457;51.966;8.230;2023-02-14T01:48:11;102906.72;;;2.41;100.00
37610;BME280;23457;51.966;8.230;2023-02-14T01:50:42;102905.97;;;2.32;100.00
37610;BME280;23457;51.966;8.230;2023-02-14T01:53:20;102909.31;;;2.31;100.00
37610;BME280;23457;51.966;8.230;2023-02-14T01:55:54;102914.06;;;2.27;100.00
37610;BME280;23457;51.966;8.230;2023-02-14T01:58:26;102917.13;;;2.23;100.00
37610;BME280;23457;51.966;8.230;2023-02-14T02:00:55;102911.09;;;2.12;100.00
37610;BME280;23457;51.966;8.230;2023-02-14T02:03:29;102908.78;;;2.05;100.00
37610;BME280;23457;51.966;8.230;2023-02-14T02:08:31;102901.13;;;2.15;100.00
37610;BME280;23457;51.966;8.230;2023-02-14T02:11:00;102897.25;;;2.10;100.00
37610;BME280;23457;51.966;8.230;2023-02-14T02:13:27;102894.06;;;2.02;100.00
37610;BME280;23457;51.966;8.230;2023-02-14T02:19:06;102896.84;;;2.15;100.00
37610;BME280;23457;51.966;8.230;2023-02-14T02:30:15;102881.84;;;2.10;100.00
37610;BME280;23457;51.966;8.230;2023-02-14T02:52:27;102858.22;;;1.73;100.00
37610;BME280;23457;51.966;8.230;2023-02-14T02:55:21;102855.94;;;1.76;100.00
37610;BME280;23457;51.966;8.230;2023-02-14T02:57:52;102856.31;;;1.81;100.00
37610;BME280;23457;51.966;8.230;2023-02-14T03:00:21;102845.41;;;1.73;100.00
37610;BME280;23457;51.966;8.230;2023-02-14T03:02:51;102854.63;;;1.71;100.00
37610;BME280;23457;51.966;8.230;2023-02-14T03:05:39;102845.16;;;1.70;100.00
37610;BME280;23457;51.966;8.230;2023-02-14T03:08:06;102844.09;;;1.68;100.00
37610;BME280;23457;51.966;8.230;2023-02-14T03:10:35;102842.59;;;1.70;100.00
37610;BME280;23457;51.966;8.230;2023-02-14T03:16:02;102841.41;;;1.67;100.00
37610;BME280;23457;51.966;8.230;2023-02-14T03:27:21;102837.19;;;1.67;100.00
37610;BME280;23457;51.966;8.230;2023-02-14T03:30:00;102840.38;;;1.65;100.00
37610;BME280;23457;51.966;8.230;2023-02-14T03:32:47;102839.50;;;1.64;100.00
37610;BME280;23457;51.966;8.230;2023-02-14T03:38:11;102833.34;;;1.62;100.00
37610;BME280;23457;51.966;8.230;2023-02-14T03:40:54;102828.72;;;1.48;100.00
37610;BME280;23457;51.966;8.230;2023-02-14T03:43:28;102828.44;;;1.45;100.00
37610;BME280;23457;51.966;8.230;2023-02-14T03:48:56;102822.81;;;1.49;100.00
37610;BME280;23457;51.966;8.230;2023-02-14T03:51:25;102822.06;;;1.50;100.00
37610;BME280;23457;51.966;8.230;2023-02-14T03:53:55;102820.50;;;1.52;100.00
37610;BME280;23457;51.966;8.230;2023-02-14T03:56:33;102823.59;;;1.48;100.00
37610;BME280;23457;51.966;8.230;2023-02-14T03:59:07;102822.06;;;1.50;100.00
37610;BME280;23457;51.966;8.230;2023-02-14T04:02:01;102817.44;;;1.46;100.00
37610;BME280;23457;51.966;8.230;2023-02-14T04:04:30;102807.66;;;1.42;100.00
37610;BME280;23457;51.966;8.230;2023-02-14T04:06:58;102812.56;;;1.39;100.00
37610;BME280;23457;51.966;8.230;2023-02-14T04:09:24;102813.31;;;1.38;100.00
37610;BME280;23457;51.966;8.230;2023-02-14T04:11:51;102802.53;;;1.42;100.00
37610;BME280;23457;51.966;8.230;2023-02-14T04:14:17;102803.72;;;1.46;100.00
37610;BME280;23457;51.966;8.230;2023-02-14T04:16:44;102804.34;;;1.43;100.00
37610;BME280;23457;51.966;8.230;2023-02-14T04:19:29;102804.13;;;1.50;100.00
37610;BME280;23457;51.966;8.230;2023-02-14T04:21:56;102803.72;;;1.46;100.00
37610;BME280;23457;51.966;8.230;2023-02-14T04:24:22;102796.78;;;1.44;100.00
37610;BME280;23457;51.966;8.230;2023-02-14T04:26:49;102801.50;;;1.40;100.00
37610;BME280;23457;51.966;8.230;2023-02-14T04:29:47;102803.31;;;1.41;100.00
37610;BME280;23457;51.966;8.230;2023-02-14T04:32:20;102805.09;;;1.42;100.00
37610;BME280;23457;51.966;8.230;2023-02-14T04:34:47;102801.75;;;1.33;100.00
37610;BME280;23457;51.966;8.230;2023-02-14T04:37:16;102799.06;;;1.31;100.00
37610;BME280;23457;51.966;8.230;2023-02-14T04:39:43;102804.06;;;1.30;100.00
37610;BME280;23457;51.966;8.230;2023-02-14T04:42:10;102798.94;;;1.30;100.00
37610;BME280;23457;51.966;8.230;2023-02-14T04:44:36;102799.69;;;1.29;100.00
37610;BME280;23457;51.966;8.230;2023-02-14T04:47:06;102791.25;;;1.30;100.00
37610;BME280;23457;51.966;8.230;2023-02-14T04:49:33;102789.72;;;1.32;100.00
37610;BME280;23457;51.966;8.230;2023-02-14T04:52:00;102792.00;;;1.29;100.00
37610;BME280;23457;51.966;8.230;2023-02-14T04:54:27;102789.59;;;1.30;100.00
37610;BME280;23457;51.966;8.230;2023-02-14T04:56:54;102781.00;;;1.30;100.00
37610;BME280;23457;51.966;8.230;2023-02-14T04:59:21;102781.63;;;1.27;100.00
37610;BME280;23457;51.966;8.230;2023-02-14T05:01:50;102779.34;;;1.30;100.00
37610;BME280;23457;51.966;8.230;2023-02-14T05:04:18;102780.63;;;1.25;100.00
37610;BME280;23457;51.966;8.230;2023-02-14T05:06:44;102774.47;;;1.23;100.00
37610;BME280;23457;51.966;8.230;2023-02-14T05:09:11;102766.03;;;1.24;100.00
37610;BME280;23457;51.966;8.230;2023-02-14T05:11:38;102768.53;;;1.14;100.00
37610;BME280;23457;51.966;8.230;2023-02-14T05:14:05;102775.69;;;1.08;100.00
37610;BME280;23457;51.966;8.230;2023-02-14T05:16:31;102772.50;;;1.11;100.00
37610;BME280;23457;51.966;8.230;2023-02-14T05:18:58;102775.84;;;1.10;100.00
37610;BME280;23457;51.966;8.230;2023-02-14T05:21:25;102770.09;;;1.12;100.00
37610;BME280;23457;51.966;8.230;2023-02-14T05:23:52;102767.38;;;1.11;100.00
37610;BME280;23457;51.966;8.230;2023-02-14T05:26:18;102769.53;;;1.06;100.00
37610;BME280;23457;51.966;8.230;2023-02-14T05:28:45;102773.50;;;1.02;100.00
37610;BME280;23457;51.966;8.230;2023-02-14T05:31:11;102770.69;;;0.99;100.00
37610;BME280;23457;51.966;8.230;2023-02-14T05:33:38;102766.84;;;1.04;100.00
37610;BME280;23457;51.966;8.230;2023-02-14T05:36:05;102770.09;;;1.12;100.00
37610;BME280;23457;51.966;8.230;2023-02-14T05:38:31;102770.22;;;1.14;100.00
37610;BME280;23457;51.966;8.230;2023-02-14T05:41:00;102768.66;;;1.05;100.00
37610;BME280;23457;51.966;8.230;2023-02-14T05:43:28;102775.84;;;1.10;100.00
37610;BME280;23457;51.966;8.230;2023-02-14T05:45:56;102775.06;;;1.11;100.00
37610;BME280;23457;51.966;8.230;2023-02-14T05:48:23;102780.97;;;1.10;100.00
37610;BME280;23457;51.966;8.230;2023-02-14T05:50:50;102778.38;;;0.99;100.00
37610;BME280;23457;51.966;8.230;2023-02-14T05:53:16;102777.38;;;1.07;100.00
37610;BME280;23457;51.966;8.230;2023-02-14T05:55:43;102777.09;;;1.04;100.00
37610;BME280;23457;51.966;8.230;2023-02-14T05:58:10;102779.16;;;1.08;100.00
37610;BME280;23457;51.966;8.230;2023-02-14T06:00:38;102780.47;;;1.14;100.00
37610;BME280;23457;51.966;8.230;2023-02-14T06:03:07;102784.91;;;1.06;100.00
37610;BME280;23457;51.966;8.230;2023-02-14T06:05:33;102786.56;;;1.05;100.00
37610;BME280;23457;51.966;8.230;2023-02-14T06:08:00;102783.38;;;1.08;100.00
37610;BME280;23457;51.966;8.230;2023-02-14T06:10:27;102776.06;;;1.02;100.00
37610;BME280;23457;51.966;8.230;2023-02-14T06:12:53;102779.28;;;1.00;100.00
37610;BME280;23457;51.966;8.230;2023-02-14T06:15:23;102788.81;;;0.92;100.00
37610;BME280;23457;51.966;8.230;2023-02-14T06:17:51;102790.09;;;0.87;100.00
37610;BME280;23457;51.966;8.230;2023-02-14T06:20:18;102787.75;;;0.80;100.00
37610;BME280;23457;51.966;8.230;2023-02-14T06:22:45;102793.00;;;0.82;100.00
37610;BME280;23457;51.966;8.230;2023-02-14T06:25:11;102789.41;;;0.80;100.00
37610;BME280;23457;51.966;8.230;2023-02-14T06:27:38;102796.50;;;0.92;100.00
37610;BME280;23457;51.966;8.230;2023-02-14T06:30:05;102794.81;;;0.83;100.00
37610;BME280;23457;51.966;8.230;2023-02-14T06:32:32;102793.63;;;0.79;100.00
37610;BME280;23457;51.966;8.230;2023-02-14T06:34:59;102798.75;;;0.79;100.00
37610;BME280;23457;51.966;8.230;2023-02-14T06:37:26;102793.63;;;0.79;100.00
37610;BME280;23457;51.966;8.230;2023-02-14T06:39:52;102796.34;;;0.81;100.00
37610;BME280;23457;51.966;8.230;2023-02-14T06:42:19;102790.59;;;0.83;100.00
37610;BME280;23457;51.966;8.230;2023-02-14T06:44:45;102798.53;;;0.86;100.00
37610;BME280;23457;51.966;8.230;2023-02-14T06:47:12;102795.72;;;0.83;100.00
37610;BME280;23457;51.966;8.230;2023-02-14T06:49:39;102796.88;;;0.87;100.00
37610;BME280;23457;51.966;8.230;2023-02-14T06:52:05;102795.72;;;0.83;100.00
37610;BME280;23457;51.966;8.230;2023-02-14T06:54:32;102796.22;;;0.89;100.00
37610;BME280;23457;51.966;8.230;2023-02-14T06:56:59;102802.91;;;0.87;100.00
37610;BME280;23457;51.966;8.230;2023-02-14T06:59:25;102799.59;;;0.88;100.00
37610;BME280;23457;51.966;8.230;2023-02-14T07:01:52;102801.25;;;0.88;100.00
37610;BME280;23457;51.966;8.230;2023-02-14T07:04:19;102804.16;;;0.82;100.00
37610;BME280;23457;51.966;8.230;2023-02-14T07:06:46;102800.34;;;0.87;100.00
37610;BME280;23457;51.966;8.230;2023-02-14T07:09:12;102802.63;;;0.84;100.00
37610;BME280;23457;51.966;8.230;2023-02-14T07:11:44;102804.81;;;0.90;100.00
37610;BME280;23457;51.966;8.230;2023-02-14T07:14:11;102808.94;;;0.88;100.00
37610;BME280;23457;51.966;8.230;2023-02-14T07:16:38;102803.13;;;0.80;100.00
37610;BME280;23457;51.966;8.230;2023-02-14T07:19:04;102805.94;;;0.83;100.00
37610;BME280;23457;51.966;8.230;2023-02-14T07:21:31;102805.56;;;0.89;100.00
37610;BME280;23457;51.966;8.230;2023-02-14T07:23:58;102803.81;;;0.88;100.00
37610;BME280;23457;51.966;8.230;2023-02-14T07:26:24;102811.81;;;1.01;100.00
37610;BME280;23457;51.966;8.230;2023-02-14T07:28:51;102808.09;;;1.07;100.00
37610;BME280;23457;51.966;8.230;2023-02-14T07:31:18;102806.41;;;0.98;100.00
37610;BME280;23457;51.966;8.230;2023-02-14T07:33:49;102810.63;;;0.97;100.00
37610;BME280;23457;51.966;8.230;2023-02-14T07:36:17;102811.69;;;1.10;100.00
37610;BME280;23457;51.966;8.230;2023-02-14T07:38:44;102799.66;;;1.08;100.00
37610;BME280;23457;51.966;8.230;2023-02-14T07:41:10;102802.06;;;1.07;100.00
37610;BME280;23457;51.966;8.230;2023-02-14T07:43:37;102800.16;;;1.15;100.00
37610;BME280;23457;51.966;8.230;2023-02-14T07:46:05;102799.38;;;1.05;100.00
37610;BME280;23457;51.966;8.230;2023-02-14T07:48:32;102802.69;;;1.04;100.00
37610;BME280;23457;51.966;8.230;2023-02-14T07:51:00;102797.50;;;1.13;100.00
37610;BME280;23457;51.966;8.230;2023-02-14T07:53:27;102800.16;;;1.15;100.00
37610;BME280;23457;51.966;8.230;2023-02-14T07:55:54;102806.00;;;1.32;100.00
37610;BME280;23457;51.966;8.230;2023-02-14T07:58:20;102800.25;;;1.35;100.00
37610;BME280;23457;51.966;8.230;2023-02-14T08:00:47;102802.81;;;1.45;100.00
37610;BME280;23457;51.966;8.230;2023-02-14T08:03:14;102795.13;;;1.45;100.00
37610;BME280;23457;51.966;8.230;2023-02-14T08:05:41;102802.56;;;1.52;100.00
37610;BME280;23457;51.966;8.230;2023-02-14T08:08:08;102802.69;;;1.54;100.00
37610;BME280;23457;51.966;8.230;2023-02-14T08:10:35;102803.34;;;1.61;100.00
37610;BME280;23457;51.966;8.230;2023-02-14T08:13:01;102796.72;;;1.73;100.00
37610;BME280;23457;51.966;8.230;2023-02-14T08:15:31;102798.00;;;1.89;100.00
37610;BME280;23457;51.966;8.230;2023-02-14T08:18:17;102800.16;;;1.94;100.00
37610;BME280;23457;51.966;8.230;2023-02-14T08:20:46;102798.63;;;2.06;100.00
37610;BME280;23457;51.966;8.230;2023-02-14T08:23:16;102795.78;;;2.24;100.00
37610;BME280;23457;51.966;8.230;2023-02-14T08:25:43;102796.66;;;2.34;100.00
37610;BME280;23457;51.966;8.230;2023-02-14T08:28:10;102800.09;;;2.45;100.00
37610;BME280;23457;51.966;8.230;2023-02-14T08:30:39;102797.59;;;2.67;100.00
37610;BME280;23457;51.966;8.230;2023-02-14T08:33:06;102796.00;;;2.89;100.00
37610;BME280;23457;51.966;8.230;2023-02-14T08:35:34;102787.53;;;3.12;100.00
37610;BME280;23457;51.966;8.230;2023-02-14T08:38:01;102790.59;;;3.40;100.00
37610;BME280;23457;51.966;8.230;2023-02-14T08:40:29;102779.38;;;3.61;100.00
37610;BME280;23457;51.966;8.230;2023-02-14T08:42:55;102779.28;;;3.71;100.00
37610;BME280;23457;51.966;8.230;2023-02-14T08:45:22;102781.88;;;3.71;100.00
37610;BME280;23457;51.966;8.230;2023-02-14T08:47:49;102784.59;;;3.84;100.00
37610;BME280;23457;51.966;8.230;2023-02-14T08:50:17;102784.09;;;4.12;100.00
37610;BME280;23457;51.966;8.230;2023-02-14T08:52:44;102775.63;;;4.36;100.00
37610;BME280;23457;51.966;8.230;2023-02-14T08:55:12;102782.31;;;4.34;100.00
37610;BME280;23457;51.966;8.230;2023-02-14T08:57:39;102784.47;;;4.40;100.00
37610;BME280;23457;51.966;8.230;2023-02-14T09:00:08;102780.63;;;4.69;100.00
37610;BME280;23457;51.966;8.230;2023-02-14T09:02:35;102778.50;;;4.76;100.00
37610;BME280;23457;51.966;8.230;2023-02-14T09:05:02;102776.94;;;4.78;100.00
37610;BME280;23457;51.966;8.230;2023-02-14T09:07:29;102782.19;;;4.91;100.00
37610;BME280;23457;51.966;8.230;2023-02-14T09:09:55;102784.28;;;4.96;100.00
37610;BME280;23457;51.966;8.230;2023-02-14T09:12:22;102783.97;;;5.03;100.00
37610;BME280;23457;51.966;8.230;2023-02-14T09:14:49;102777.50;;;5.22;100.00
37610;BME280;23457;51.966;8.230;2023-02-14T09:17:15;102770.84;;;5.37;100.00
37610;BME280;23457;51.966;8.230;2023-02-14T09:19:42;102775.78;;;5.59;100.00
37610;BME280;23457;51.966;8.230;2023-02-14T09:22:10;102764.38;;;5.80;100.00
37610;BME280;23457;51.966;8.230;2023-02-14T09:24:38;102771.50;;;5.84;100.00
37610;BME280;23457;51.966;8.230;2023-02-14T09:27:06;102771.72;;;5.87;100.00
37610;BME280;23457;51.966;8.230;2023-02-14T09:29:33;102778.19;;;6.05;100.00
37610;BME280;23457;51.966;8.230;2023-02-14T09:32:00;102771.34;;;6.19;100.00
37610;BME280;23457;51.966;8.230;2023-02-14T09:34:28;102774.63;;;6.30;100.00
37610;BME280;23457;51.966;8.230;2023-02-14T09:36:55;102780.19;;;6.49;100.00
37610;BME280;23457;51.966;8.230;2023-02-14T09:39:22;102784.09;;;6.56;100.00
37610;BME280;23457;51.966;8.230;2023-02-14T09:44:48;102778.38;;;6.88;99.46
37610;BME280;23457;51.966;8.230;2023-02-14T09:49:58;102780.63;;;7.09;97.61
37610;BME280;23457;51.966;8.230;2023-02-14T09:52:27;102772.56;;;7.18;98.37
37610;BME280;23457;51.966;8.230;2023-02-14T09:54:58;102768.94;;;7.29;97.88
37610;BME280;23457;51.966;8.230;2023-02-14T09:57:39;102765.31;;;7.40;98.21
37610;BME280;23457;51.966;8.230;2023-02-14T10:03:02;102768.75;;;7.54;97.47
37610;BME280;23457;51.966;8.230;2023-02-14T10:05:40;102763.41;;;7.66;97.46
37610;BME280;23457;51.966;8.230;2023-02-14T10:11:04;102764.59;;;8.00;94.67
37610;BME280;23457;51.966;8.230;2023-02-14T10:13:43;102762.50;;;8.08;94.95
37610;BME280;23457;51.966;8.230;2023-02-14T10:16:35;102760.44;;;8.17;94.44
37610;BME280;23457;51.966;8.230;2023-02-14T10:19:07;102767.66;;;8.37;92.78
37610;BME280;23457;51.966;8.230;2023-02-14T10:21:43;102757.56;;;8.27;91.99
37610;BME280;23457;51.966;8.230;2023-02-14T10:24:24;102754.34;;;8.60;93.70
37610;BME280;23457;51.966;8.230;2023-02-14T10:27:00;102754.00;;;8.85;92.41
37610;BME280;23457;51.966;8.230;2023-02-14T10:29:28;102749.13;;;8.91;92.17
37610;BME280;23457;51.966;8.230;2023-02-14T10:31:58;102751.19;;;9.13;91.73
37610;BME280;23457;51.966;8.230;2023-02-14T10:37:26;102750.66;;;9.19;85.77
37610;BME280;23457;51.966;8.230;2023-02-14T10:42:38;102742.03;;;9.52;87.24
37610;BME280;23457;51.966;8.230;2023-02-14T10:48:26;102732.59;;;9.87;87.43
37610;BME280;23457;51.966;8.230;2023-02-14T10:55:47;102725.56;;;10.02;85.30
37610;BME280;23457;51.966;8.230;2023-02-14T10:58:18;102723.25;;;10.24;84.38
37610;BME280;23457;51.966;8.230;2023-02-14T11:01:07;102712.47;;;10.52;80.12
37610;BME280;23457;51.966;8.230;2023-02-14T11:03:37;102712.84;;;10.60;81.13
37610;BME280;23457;51.966;8.230;2023-02-14T11:06:05;102708.94;;;10.87;82.50
37610;BME280;23457;51.966;8.230;2023-02-14T11:08:34;102706.56;;;11.11;78.96
37610;BME280;23457;51.966;8.230;2023-02-14T11:11:10;102707.19;;;11.25;78.22
37610;BME280;23457;51.966;8.230;2023-02-14T11:13:39;102711.00;;;11.33;72.41
37610;BME280;23457;51.966;8.230;2023-02-14T11:16:11;102702.09;;;11.28;77.61
37610;BME280;23457;51.966;8.230;2023-02-14T11:18:39;102693.63;;;11.72;75.69
37610;BME280;23457;51.966;8.230;2023-02-14T11:21:10;102691.19;;;11.96;71.14
37610;BME280;23457;51.966;8.230;2023-02-14T11:26:08;102690.63;;;12.46;70.93
37610;BME280;23457;51.966;8.230;2023-02-14T11:28:47;102678.13;;;12.60;70.57
37610;BME280;23457;51.966;8.230;2023-02-14T11:31:24;102678.31;;;12.64;69.13
37610;BME280;23457;51.966;8.230;2023-02-14T11:33:51;102678.38;;;12.66;71.26
37610;BME280;23457;51.966;8.230;2023-02-14T11:36:19;102673.66;;;12.79;68.83
37610;BME280;23457;51.966;8.230;2023-02-14T11:39:00;102670.28;;;12.82;70.24
37610;BME280;23457;51.966;8.230;2023-02-14T11:41:49;102672.66;;;12.98;72.43
37610;BME280;23457;51.966;8.230;2023-02-14T11:44:25;102654.16;;;13.14;66.73
37610;BME280;23457;51.966;8.230;2023-02-14T11:46:54;102657.84;;;13.21;68.17
37610;BME280;23457;51.966;8.230;2023-02-14T11:49:30;102653.78;;;13.53;63.06
37610;BME280;23457;51.966;8.230;2023-02-14T11:52:09;102649.69;;;13.61;65.38
37610;BME280;23457;51.966;8.230;2023-02-14T11:54:40;102653.63;;;13.74;65.15
37610;BME280;23457;51.966;8.230;2023-02-14T11:57:28;102635.56;;;14.08;62.40
37610;BME280;23457;51.966;8.230;2023-02-14T12:00:00;102634.53;;;13.51;63.92
37610;BME280;23457;51.966;8.230;2023-02-14T12:02:40;102640.56;;;13.48;62.74
37610;BME280;23457;51.966;8.230;2023-02-14T12:07:45;102624.44;;;14.70;62.76
37610;BME280;23457;51.966;8.230;2023-02-14T12:12:58;102621.59;;;14.08;63.19
37610;BME280;23457;51.966;8.230;2023-02-14T12:17:59;102628.41;;;14.56;59.77
37610;BME280;23457;51.966;8.230;2023-02-14T12:20:37;102621.66;;;14.64;58.40
37610;BME280;23457;51.966;8.230;2023-02-14T12:23:14;102615.09;;;14.79;58.26
37610;BME280;23457;51.966;8.230;2023-02-14T12:25:55;102617.34;;;14.96;59.62
37610;BME280;23457;51.966;8.230;2023-02-14T12:28:40;102613.22;;;14.45;55.74
37610;BME280;23457;51.966;8.230;2023-02-14T12:31:11;102607.97;;;14.45;58.16
37610;BME280;23457;51.966;8.230;2023-02-14T12:33:39;102600.78;;;14.66;59.84
37610;BME280;23457;51.966;8.230;2023-02-14T12:39:18;102593.72;;;15.26;54.94
37610;BME280;23457;51.966;8.230;2023-02-14T13:06:40;102547.25;;;14.86;56.48
37610;BME280;23457;51.966;8.230;2023-02-14T13:09:22;102548.00;;;15.14;55.83
37610;BME280;23457;51.966;8.230;2023-02-14T13:15:25;102543.22;;;14.66;56.94
37610;BME280;23457;51.966;8.230;2023-02-14T13:18:00;102529.25;;;14.65;55.05
37610;BME280;23457;51.966;8.230;2023-02-14T13:20:43;102529.53;;;14.76;56.05
37610;BME280;23457;51.966;8.230;2023-02-14T13:23:17;102526.03;;;14.46;56.11
37610;BME280;23457;51.966;8.230;2023-02-14T13:25:51;102526.44;;;14.29;55.60
37610;BME280;23457;51.966;8.230;2023-02-14T13:28:20;102529.25;;;14.37;56.11
37610;BME280;23457;51.966;8.230;2023-02-14T13:30:47;102514.53;;;15.02;58.29
37610;BME280;23457;51.966;8.230;2023-02-14T13:36:07;102516.25;;;15.69;53.14
37610;BME280;23457;51.966;8.230;2023-02-14T13:38:42;102515.78;;;15.88;53.72
37610;BME280;23457;51.966;8.230;2023-02-14T13:41:09;102521.38;;;15.30;54.12
37610;BME280;23457;51.966;8.230;2023-02-14T13:43:58;102518.22;;;15.79;53.42
37610;BME280;23457;51.966;8.230;2023-02-14T13:49:04;102502.03;;;15.98;51.75
37610;BME280;23457;51.966;8.230;2023-02-14T13:51:58;102502.84;;;14.89;52.90
37610;BME280;23457;51.966;8.230;2023-02-14T13:54:34;102498.38;;;15.90;53.17
37610;BME280;23457;51.966;8.230;2023-02-14T13:57:22;102502.84;;;15.96;52.18
37610;BME280;23457;51.966;8.230;2023-02-14T14:08:37;102493.00;;;15.86;52.50
37610;BME280;23457;51.966;8.230;2023-02-14T14:14:00;102488.38;;;15.74;51.00
37610;BME280;23457;51.966;8.230;2023-02-14T14:16:33;102485.16;;;15.50;52.64
37610;BME280;23457;51.966;8.230;2023-02-14T14:21:59;102483.31;;;15.46;53.53
37610;BME280;23457;51.966;8.230;2023-02-14T14:24:32;102480.22;;;15.26;51.83
37610;BME280;23457;51.966;8.230;2023-02-14T14:29:45;102485.84;;;15.08;53.49
37610;BME280;23457;51.966;8.230;2023-02-14T14:32:36;102471.38;;;14.88;53.63
37610;BME280;23457;51.966;8.230;2023-02-14T14:35:21;102467.41;;;14.70;53.28
37610;BME280;23457;51.966;8.230;2023-02-14T14:37:55;102473.25;;;14.92;53.26
37610;BME280;23457;51.966;8.230;2023-02-14T14:40:29;102468.03;;;15.28;52.71
37610;BME280;23457;51.966;8.230;2023-02-14T14:43:04;102461.75;;;14.87;53.28
37610;BME280;23457;51.966;8.230;2023-02-14T14:45:31;102463.38;;;14.50;54.45
37610;BME280;23457;51.966;8.230;2023-02-14T14:48:02;102456.09;;;14.72;54.97
37610;BME280;23457;51.966;8.230;2023-02-14T14:50:34;102453.63;;;15.11;53.54
37610;BME280;23457;51.966;8.230;2023-02-14T14:53:07;102451.59;;;14.99;52.43
37610;BME280;23457;51.966;8.230;2023-02-14T14:55:36;102460.44;;;15.02;51.75
37610;BME280;23457;51.966;8.230;2023-02-14T14:58:05;102446.81;;;14.83;51.41
37610;BME280;23457;51.966;8.230;2023-02-14T15:00:38;102449.94;;;14.69;52.00
37610;BME280;23457;51.966;8.230;2023-02-14T15:05:48;102440.78;;;14.85;51.69
37610;BME280;23457;51.966;8.230;2023-02-14T15:13:42;102439.09;;;14.87;51.61
37610;BME280;23457;51.966;8.230;2023-02-14T15:18:44;102430.47;;;14.58;51.59
37610;BME280;23457;51.966;8.230;2023-02-14T15:21:12;102427.03;;;14.61;51.73
37610;BME280;23457;51.966;8.230;2023-02-14T15:23:40;102421.50;;;14.49;53.24
37610;BME280;23457;51.966;8.230;2023-02-14T15:26:16;102424.47;;;14.31;53.33
37610;BME280;23457;51.966;8.230;2023-02-14T15:28:43;102430.69;;;14.36;52.63
37610;BME280;23457;51.966;8.230;2023-02-14T15:31:10;102428.72;;;14.27;52.83
37610;BME280;23457;51.966;8.230;2023-02-14T15:33:37;102418.97;;;14.22;54.40
37610;BME280;23457;51.966;8.230;2023-02-14T15:36:07;102427.69;;;13.91;52.87
37610;BME280;23457;51.966;8.230;2023-02-14T15:38:41;102423.25;;;14.18;52.74
37610;BME280;23457;51.966;8.230;2023-02-14T15:41:08;102422.34;;;14.18;55.00
37610;BME280;23457;51.966;8.230;2023-02-14T15:43:36;102416.06;;;14.11;54.97
37610;BME280;23457;51.966;8.230;2023-02-14T15:46:34;102421.91;;;14.03;55.68